createdAt,value
2018-03-14T00:01:39.997Z,14.73
2018-03-14T00:04:07.721Z,14.23
2018-03-14T00:06:35.484Z,13.05
2018-03-14T00:09:03.467Z,13.95
2018-03-14T00:11:31.135Z,13.05
2018-03-14T00:13:58.894Z,13.55
2018-03-14T00:16:26.634Z,14.50
2018-03-14T00:18:54.580Z,14.13
2018-03-14T00:21:23.062Z,14.30
2018-03-14T00:23:51.511Z,13.70
2018-03-14T00:26:20.033Z,13.25
2018-03-14T00:28:47.752Z,13.80
2018-03-14T00:31:15.598Z,14.30
2018-03-14T00:33:44.165Z,14.73
2018-03-14T00:36:11.937Z,15.48
2018-03-14T00:38:39.621Z,13.25
2018-03-14T00:41:07.344Z,14.40
2018-03-14T00:43:35.860Z,14.18
2018-03-14T00:46:04.663Z,15.80
2018-03-14T00:48:32.374Z,14.35
2018-03-14T00:51:00.194Z,14.75
2018-03-14T00:53:27.952Z,14.65
2018-03-14T00:55:55.825Z,14.73
2018-03-14T00:58:24.406Z,15.95
2018-03-14T01:00:52.127Z,14.10
2018-03-14T01:03:19.917Z,13.40
2018-03-14T01:05:48.588Z,14.93
2018-03-14T01:08:16.374Z,16.42
2018-03-14T01:10:44.342Z,13.75
2018-03-14T01:13:12.203Z,14.32
2018-03-14T01:15:39.959Z,14.20
2018-03-14T01:18:07.640Z,15.07
2018-03-14T01:20:35.498Z,16.60
2018-03-14T01:23:03.463Z,15.20
2018-03-14T01:25:31.137Z,14.25
2018-03-14T01:27:58.912Z,14.65
2018-03-14T01:30:26.730Z,13.23
2018-03-14T01:32:54.718Z,14.25
2018-03-14T01:35:22.451Z,14.20
2018-03-14T01:37:50.142Z,13.00
2018-03-14T01:40:17.974Z,11.88
2018-03-14T01:42:45.754Z,13.95
2018-03-14T01:45:14.368Z,12.27
2018-03-14T01:47:42.346Z,12.82
2018-03-14T01:50:10.017Z,13.57
2018-03-14T01:52:37.769Z,12.48
2018-03-14T01:55:05.754Z,11.75
2018-03-14T01:57:33.586Z,10.57
2018-03-14T02:00:01.379Z,10.05
2018-03-14T02:02:29.030Z,8.85
2018-03-14T02:04:56.755Z,7.53
2018-03-14T02:07:24.687Z,7.75
2018-03-14T02:09:52.570Z,5.95
2018-03-14T02:12:23.637Z,6.53
2018-03-14T02:14:53.725Z,6.97
2018-03-14T02:17:22.911Z,6.70
2018-03-14T02:19:52.675Z,6.72
2018-03-14T02:22:28.126Z,5.95
2018-03-14T02:24:59.470Z,6.82
2018-03-14T02:27:30.402Z,5.93
2018-03-14T02:30:00.937Z,7.10
2018-03-14T02:32:31.836Z,6.82
2018-03-14T02:35:01.190Z,6.30
2018-03-14T02:37:32.563Z,5.87
2018-03-14T02:40:05.375Z,6.47
2018-03-14T02:42:37.335Z,6.47
2018-03-14T02:45:06.476Z,6.60
2018-03-14T02:47:37.040Z,4.85
2018-03-14T02:50:07.171Z,6.07
2018-03-14T02:52:38.414Z,5.60
2018-03-14T02:55:08.656Z,4.87
2018-03-14T02:57:39.512Z,5.28
2018-03-14T03:00:13.522Z,5.10
2018-03-14T03:02:43.189Z,5.47
2018-03-14T03:05:13.729Z,6.68
2018-03-14T03:07:46.558Z,6.25
2018-03-14T03:10:16.236Z,6.05
2018-03-14T03:12:45.818Z,6.60
2018-03-14T03:15:13.517Z,7.40
2018-03-14T03:17:41.173Z,6.50
2018-03-14T03:20:09.566Z,6.43
2018-03-14T03:22:37.232Z,7.30
2018-03-14T03:25:04.927Z,6.95
2018-03-14T03:27:32.583Z,6.68
2018-03-14T03:30:00.275Z,6.50
2018-03-14T03:32:28.034Z,7.22
2018-03-14T03:34:56.456Z,8.40
2018-03-14T03:37:24.131Z,6.82
2018-03-14T03:39:51.916Z,7.03
2018-03-14T03:42:19.624Z,7.15
2018-03-14T03:44:47.354Z,8.25
2018-03-14T03:47:15.061Z,8.27
2018-03-14T03:49:50.696Z,7.47
2018-03-14T03:52:18.445Z,7.60
2018-03-14T03:54:46.122Z,8.00
2018-03-14T03:57:13.806Z,7.20
2018-03-14T03:59:41.538Z,8.98
2018-03-14T04:02:09.255Z,8.93
2018-03-14T04:04:37.758Z,8.73
2018-03-14T04:07:05.391Z,8.30
2018-03-14T04:09:33.059Z,7.70
2018-03-14T04:12:00.735Z,9.23
2018-03-14T04:14:28.469Z,9.15
2018-03-14T04:16:56.309Z,9.90
2018-03-14T04:19:24.010Z,9.77
2018-03-14T04:21:51.835Z,8.50
2018-03-14T04:24:19.525Z,9.55
2018-03-14T04:26:47.940Z,9.93
2018-03-14T04:29:15.699Z,9.27
2018-03-14T04:31:43.608Z,10.85
2018-03-14T04:34:11.255Z,10.45
2018-03-14T04:36:38.916Z,11.60
2018-03-14T04:39:07.405Z,12.32
2018-03-14T04:41:35.032Z,11.98
2018-03-14T04:44:02.798Z,10.88
2018-03-14T04:46:30.508Z,12.98
2018-03-14T04:48:58.281Z,12.63
2018-03-14T04:51:26.148Z,12.37
2018-03-14T04:53:53.894Z,12.95
2018-03-14T04:56:21.796Z,12.98
2018-03-14T04:58:49.496Z,14.63
2018-03-14T05:01:17.202Z,14.23
2018-03-14T05:03:44.952Z,15.30
2018-03-14T05:06:12.607Z,16.17
2018-03-14T05:08:40.299Z,14.98
2018-03-14T05:11:07.994Z,17.48
2018-03-14T05:13:36.414Z,16.73
2018-03-14T05:16:04.407Z,17.17
2018-03-14T05:18:32.107Z,16.00
2018-03-14T05:20:59.864Z,16.67
2018-03-14T05:23:28.399Z,15.75
2018-03-14T05:25:56.187Z,15.32
2018-03-14T05:28:23.846Z,13.80
2018-03-14T05:30:51.493Z,13.23
2018-03-14T05:33:19.183Z,11.65
2018-03-14T05:35:46.907Z,11.40
2018-03-14T05:38:14.567Z,11.65
2018-03-14T05:40:42.245Z,10.30
2018-03-14T05:43:09.838Z,11.25
2018-03-14T05:45:38.365Z,10.55
2018-03-14T05:48:06.098Z,10.90
2018-03-14T05:50:33.871Z,12.35
2018-03-14T05:53:01.649Z,13.90
2018-03-14T05:55:30.286Z,11.35
2018-03-14T05:57:58.010Z,13.40
2018-03-14T06:00:25.711Z,13.02
2018-03-14T06:02:53.556Z,12.13
2018-03-14T06:05:21.401Z,11.80
2018-03-14T06:07:49.857Z,13.30
2018-03-14T06:10:17.759Z,14.25
2018-03-14T06:12:45.591Z,12.20
2018-03-14T06:15:14.035Z,11.82
2018-03-14T06:17:42.055Z,14.07
2018-03-14T06:20:10.566Z,15.57
2018-03-14T06:22:38.398Z,15.30
2018-03-14T06:25:06.866Z,14.93
2018-03-14T06:27:34.532Z,15.82
2018-03-14T06:30:02.246Z,16.95
2018-03-14T06:32:30.655Z,16.10
2018-03-14T06:34:58.393Z,15.85
2018-03-14T06:37:28.792Z,15.27
2018-03-14T06:39:57.710Z,15.20
2018-03-14T06:42:26.203Z,16.37
2018-03-14T06:44:54.112Z,15.38
2018-03-14T06:47:21.914Z,14.87
2018-03-14T06:49:50.000Z,18.50
2018-03-14T06:52:18.551Z,16.23
2018-03-14T06:54:46.673Z,14.45
2018-03-14T06:57:15.630Z,17.00
2018-03-14T06:59:55.419Z,16.23
2018-03-14T07:02:43.918Z,15.60
2018-03-14T07:05:26.682Z,15.93
2018-03-14T07:07:54.527Z,16.42
2018-03-14T07:10:22.426Z,15.32
2018-03-14T07:12:51.066Z,15.73
2018-03-14T07:15:20.508Z,17.20
2018-03-14T07:17:48.980Z,16.42
2018-03-14T07:20:17.663Z,17.52
2018-03-14T07:22:45.887Z,15.60
2018-03-14T07:25:14.026Z,15.50
2018-03-14T07:27:42.849Z,15.32
2018-03-14T07:30:10.811Z,15.85
2018-03-14T07:32:38.816Z,17.55
2018-03-14T07:35:07.235Z,18.23
2018-03-14T07:37:35.099Z,16.30
2018-03-14T07:40:02.900Z,15.18
2018-03-14T07:42:31.214Z,16.20
2018-03-14T07:44:59.503Z,15.60
2018-03-14T07:47:27.936Z,15.25
2018-03-14T07:49:56.261Z,14.25
2018-03-14T07:52:24.444Z,15.85
2018-03-14T07:54:52.515Z,15.75
2018-03-14T07:57:20.487Z,15.27
2018-03-14T07:59:48.755Z,14.27
2018-03-14T08:02:16.813Z,14.82
2018-03-14T08:04:45.033Z,15.20
2018-03-14T08:07:12.968Z,15.60
2018-03-14T08:09:41.011Z,13.70
2018-03-14T08:12:09.419Z,16.30
2018-03-14T08:14:37.832Z,16.00
2018-03-14T08:17:06.273Z,13.30
2018-03-14T08:19:34.325Z,15.30
2018-03-14T08:22:05.538Z,15.02
2018-03-14T08:24:33.744Z,15.70
2018-03-14T08:27:02.559Z,14.05
2018-03-14T08:29:30.663Z,14.35
2018-03-14T08:31:58.619Z,13.75
2018-03-14T08:34:26.947Z,15.23
2018-03-14T08:36:55.030Z,14.65
2018-03-14T08:39:22.634Z,14.23
2018-03-14T08:41:50.538Z,15.88
2018-03-14T08:44:18.423Z,17.08
2018-03-14T08:46:46.882Z,15.05
2018-03-14T08:49:14.541Z,14.20
2018-03-14T08:51:42.391Z,13.55
2018-03-14T08:54:10.282Z,15.02
2018-03-14T08:56:38.100Z,13.65
2018-03-14T09:02:08.243Z,13.00
2018-03-14T09:04:36.262Z,12.50
2018-03-14T09:07:05.390Z,12.90
2018-03-14T09:09:34.036Z,12.85
2018-03-14T09:12:01.934Z,14.30
2018-03-14T09:14:29.824Z,15.15
2018-03-14T09:16:57.799Z,13.05
2018-03-14T09:19:25.500Z,12.82
2018-03-14T09:21:53.455Z,12.85
2018-03-14T09:24:22.884Z,12.60
2018-03-14T09:26:51.453Z,13.30
2018-03-14T09:29:19.480Z,13.05
2018-03-14T09:31:49.873Z,12.70
2018-03-14T09:34:17.970Z,12.25
2018-03-14T09:36:45.915Z,10.75
2018-03-14T09:39:13.619Z,11.10
2018-03-14T09:41:41.493Z,10.30
2018-03-14T09:44:09.538Z,9.32
2018-03-14T09:46:38.328Z,9.77
2018-03-14T09:49:06.975Z,11.55
2018-03-14T09:51:34.624Z,10.52
2018-03-14T09:54:05.215Z,10.20
2018-03-14T09:56:34.554Z,10.05
2018-03-14T09:59:04.360Z,10.18
2018-03-14T10:01:32.408Z,8.85
2018-03-14T10:04:01.190Z,10.38
2018-03-14T10:06:35.135Z,10.30
2018-03-14T10:09:13.669Z,9.50
2018-03-14T10:11:44.817Z,9.25
2018-03-14T10:14:19.635Z,9.43
2018-03-14T10:16:53.023Z,10.02
2018-03-14T10:19:26.026Z,11.50
2018-03-14T10:21:55.774Z,9.50
2018-03-14T10:24:23.802Z,8.75
2018-03-14T10:26:55.571Z,8.48
2018-03-14T10:29:25.691Z,9.70
2018-03-14T10:31:54.629Z,8.10
2018-03-14T10:34:22.785Z,8.35
2018-03-14T10:36:51.738Z,8.40
2018-03-14T10:39:20.584Z,9.18
2018-03-14T10:41:48.744Z,8.77
2018-03-14T10:44:16.969Z,7.40
2018-03-14T10:46:46.615Z,7.60
2018-03-14T10:49:15.090Z,6.62
2018-03-14T10:51:43.208Z,7.35
2018-03-14T10:54:11.431Z,8.85
2018-03-14T10:56:40.557Z,9.18
2018-03-14T10:59:10.610Z,9.23
2018-03-14T11:01:56.455Z,8.65
2018-03-14T11:04:25.985Z,7.87
2018-03-14T11:06:54.494Z,9.38
2018-03-14T11:09:23.448Z,8.88
2018-03-14T11:11:54.946Z,8.73
2018-03-14T11:14:24.066Z,8.25
2018-03-14T11:16:52.421Z,10.68
2018-03-14T11:19:36.236Z,9.27
2018-03-14T11:22:05.405Z,8.85
2018-03-14T11:24:34.706Z,7.55
2018-03-14T11:27:02.601Z,6.93
2018-03-14T11:29:30.307Z,7.32
2018-03-14T11:32:03.102Z,8.35
2018-03-14T11:34:31.972Z,6.80
2018-03-14T11:37:00.735Z,7.68
2018-03-14T11:39:30.063Z,8.50
2018-03-14T11:41:59.077Z,8.45
2018-03-14T11:44:27.002Z,8.27
2018-03-14T11:46:55.679Z,7.93
2018-03-14T11:49:24.053Z,8.50
2018-03-14T11:51:51.728Z,8.38
2018-03-14T11:54:19.479Z,7.62
2018-03-14T11:56:47.232Z,7.80
2018-03-14T11:59:15.069Z,7.95
2018-03-14T12:01:44.375Z,9.07
2018-03-14T12:04:13.274Z,7.80
2018-03-14T12:06:41.545Z,7.82
2018-03-14T12:09:09.690Z,7.43
2018-03-14T12:11:37.779Z,7.70
2018-03-14T12:14:07.061Z,7.85
2018-03-14T12:16:36.101Z,6.93
2018-03-14T12:19:04.179Z,7.90
2018-03-14T12:21:31.873Z,8.70
2018-03-14T12:23:59.911Z,7.28
2018-03-14T12:26:28.730Z,7.97
2018-03-14T12:28:56.643Z,8.25
2018-03-14T12:31:24.331Z,8.55
2018-03-14T12:33:52.990Z,7.70
2018-03-14T12:36:22.445Z,9.13
2018-03-14T12:38:51.602Z,9.60
2018-03-14T12:41:19.647Z,7.53
2018-03-14T12:43:47.643Z,7.30
2018-03-14T12:46:15.455Z,7.90
2018-03-14T12:48:43.583Z,8.00
2018-03-14T12:51:11.579Z,7.80
2018-03-14T12:53:39.273Z,7.20
2018-03-14T12:56:06.965Z,7.60
2018-03-14T12:58:36.356Z,7.30
2018-03-14T13:01:04.103Z,9.75
2018-03-14T13:03:32.067Z,9.40
2018-03-14T13:06:01.744Z,8.32
2018-03-14T13:08:34.741Z,9.00
2018-03-14T13:11:04.006Z,8.40
2018-03-14T13:13:32.216Z,8.20
2018-03-14T13:16:00.223Z,7.23
2018-03-14T13:18:28.057Z,7.93
2018-03-14T13:21:02.603Z,8.20
2018-03-14T13:23:30.536Z,8.20
2018-03-14T13:25:58.482Z,9.38
2018-03-14T13:28:26.347Z,8.88
2018-03-14T13:30:54.618Z,8.55
2018-03-14T13:33:23.318Z,8.23
2018-03-14T13:35:51.319Z,8.40
2018-03-14T13:38:19.150Z,7.80
2018-03-14T13:40:47.657Z,6.93
2018-03-14T13:43:19.430Z,7.55
2018-03-14T13:45:47.780Z,7.47
2018-03-14T13:48:15.568Z,8.43
2018-03-14T13:50:43.228Z,8.10
2018-03-14T13:53:11.126Z,6.87
2018-03-14T13:55:38.846Z,7.60
2018-03-14T13:58:06.931Z,7.45
2018-03-14T14:00:34.772Z,7.28
2018-03-14T14:03:03.743Z,6.60
2018-03-14T14:05:31.433Z,8.60
2018-03-14T14:07:59.763Z,7.60
2018-03-14T14:10:27.491Z,6.50
2018-03-14T14:12:55.663Z,6.78
2018-03-14T14:15:23.773Z,6.05
2018-03-14T14:18:01.586Z,6.55
2018-03-14T14:20:29.917Z,6.50
2018-03-14T14:22:57.977Z,6.72
2018-03-14T14:25:25.741Z,6.18
2018-03-14T14:27:53.375Z,7.45
2018-03-14T14:30:21.281Z,6.82
2018-03-14T14:33:02.199Z,6.25
2018-03-14T14:35:30.414Z,6.28
2018-03-14T14:37:59.716Z,6.30
2018-03-14T14:40:27.590Z,6.95
2018-03-14T14:42:56.097Z,6.75
2018-03-14T14:45:23.915Z,7.15
2018-03-14T14:47:51.852Z,7.65
2018-03-14T14:50:19.720Z,6.95
2018-03-14T14:52:47.509Z,6.87
2018-03-14T14:55:16.224Z,6.85
2018-03-14T14:57:44.342Z,5.75
2018-03-14T15:00:12.186Z,6.70
2018-03-14T15:02:40.561Z,6.68
2018-03-14T15:05:08.266Z,6.87
2018-03-14T15:07:36.205Z,5.85
2018-03-14T15:10:04.180Z,6.05
2018-03-14T15:12:32.303Z,6.05
2018-03-14T15:15:00.857Z,5.97
2018-03-14T15:17:28.831Z,7.45
2018-03-14T15:19:58.020Z,7.20
2018-03-14T15:22:25.832Z,6.60
2018-03-14T15:24:54.641Z,5.93
2018-03-14T15:27:23.084Z,5.25
2018-03-14T15:29:51.161Z,6.65
2018-03-14T15:32:19.667Z,6.32
2018-03-14T15:34:47.708Z,5.90
2018-03-14T15:37:16.783Z,5.95
2018-03-14T15:39:44.993Z,6.32
2018-03-14T15:42:13.642Z,5.18
2018-03-14T15:44:44.065Z,5.40
2018-03-14T15:47:11.731Z,5.90
2018-03-14T15:49:40.466Z,6.70
2018-03-14T15:52:09.363Z,5.62
2018-03-14T15:54:38.219Z,5.35
2018-03-14T15:57:06.317Z,5.62
2018-03-14T15:59:34.963Z,5.93
2018-03-14T16:02:04.581Z,4.47
2018-03-14T16:04:37.114Z,5.55
2018-03-14T16:07:07.925Z,5.37
2018-03-14T16:09:37.241Z,5.62
2018-03-14T16:12:06.894Z,4.97
2018-03-14T16:14:35.785Z,5.65
2018-03-14T16:17:06.749Z,5.43
2018-03-14T16:19:34.732Z,5.70
2018-03-14T16:22:03.354Z,5.68
2018-03-14T16:24:32.489Z,6.00
2018-03-14T16:27:00.514Z,6.30
2018-03-14T16:29:30.412Z,6.50
2018-03-14T16:32:02.281Z,7.70
2018-03-14T16:34:30.646Z,7.22
2018-03-14T16:36:59.276Z,9.13
2018-03-14T16:39:29.272Z,7.68
2018-03-14T16:41:57.606Z,7.10
2018-03-14T16:44:27.042Z,7.35
2018-03-14T16:46:55.580Z,7.15
2018-03-14T16:49:23.620Z,7.72
2018-03-14T16:51:52.251Z,6.32
2018-03-14T16:54:22.226Z,7.37
2018-03-14T16:56:50.775Z,7.70
2018-03-14T16:59:18.948Z,7.35
2018-03-14T17:01:47.077Z,14.13
2018-03-14T17:04:15.871Z,8.05
2018-03-14T17:06:44.515Z,7.45
2018-03-14T17:09:13.061Z,6.75
2018-03-14T17:11:43.463Z,7.00
2018-03-14T17:14:11.814Z,7.00
2018-03-14T17:16:41.425Z,7.82
2018-03-14T17:19:09.757Z,6.20
2018-03-14T17:21:38.301Z,8.18
2018-03-14T17:24:07.172Z,8.30
2018-03-14T17:26:36.773Z,8.90
2018-03-14T17:29:05.741Z,8.10
2018-03-14T17:31:34.998Z,11.02
2018-03-14T17:34:04.305Z,8.27
2018-03-14T17:36:33.100Z,7.05
2018-03-14T17:39:01.769Z,7.62
2018-03-14T17:41:30.793Z,7.70
2018-03-14T17:44:01.004Z,8.35
2018-03-14T17:46:29.561Z,7.75
2018-03-14T17:48:58.320Z,8.20
2018-03-14T17:51:28.139Z,7.25
2018-03-14T17:53:56.831Z,7.53
2018-03-14T17:56:25.791Z,9.25
2018-03-14T17:58:55.801Z,7.43
2018-03-14T18:01:24.692Z,8.45
2018-03-14T18:03:54.575Z,8.30
2018-03-14T18:06:24.466Z,8.48
2018-03-14T18:08:54.678Z,7.37
2018-03-14T18:11:23.821Z,8.82
2018-03-14T18:13:54.023Z,8.32
2018-03-14T18:16:23.053Z,8.35
2018-03-14T18:18:52.192Z,7.35
2018-03-14T18:21:22.833Z,8.18
2018-03-14T18:23:51.438Z,9.35
2018-03-14T18:26:21.343Z,9.85
2018-03-14T18:28:50.173Z,9.40
2018-03-14T18:31:18.059Z,10.63
2018-03-14T18:33:47.940Z,11.30
2018-03-14T18:36:21.121Z,11.32
2018-03-14T18:38:50.141Z,11.90
2018-03-14T18:41:18.490Z,11.12
2018-03-14T18:43:48.112Z,10.90
2018-03-14T18:46:18.027Z,9.93
2018-03-14T18:48:47.460Z,10.52
2018-03-14T18:51:17.112Z,11.43
2018-03-14T18:53:47.134Z,10.65
2018-03-14T18:56:15.267Z,10.60
2018-03-14T18:58:43.749Z,11.73
2018-03-14T19:01:11.484Z,11.45
2018-03-14T19:03:41.030Z,10.23
2018-03-14T19:06:10.193Z,9.70
2018-03-14T19:08:39.323Z,9.52
2018-03-14T19:11:08.996Z,10.43
2018-03-14T19:13:38.813Z,10.05
2018-03-14T19:16:07.301Z,10.35
2018-03-14T19:18:35.249Z,10.38
2018-03-14T19:21:05.102Z,10.63
2018-03-14T19:23:33.562Z,10.23
2018-03-14T19:26:01.969Z,11.52
2018-03-14T19:28:30.455Z,11.55
2018-03-14T19:30:59.564Z,11.60
2018-03-14T19:33:29.199Z,11.25
2018-03-14T19:35:58.768Z,10.40
2018-03-14T19:38:27.342Z,10.95
2018-03-14T19:40:57.304Z,10.02
2018-03-14T19:43:26.683Z,11.40
2018-03-14T19:45:55.656Z,10.55
2018-03-14T19:48:24.028Z,10.43
2018-03-14T19:50:52.450Z,10.38
2018-03-14T19:53:21.223Z,10.60
2018-03-14T19:55:50.547Z,10.52
2018-03-14T19:58:19.406Z,11.05
2018-03-14T20:00:50.034Z,10.65
2018-03-14T20:03:20.316Z,10.75
2018-03-14T20:05:54.400Z,11.00
2018-03-14T20:08:23.228Z,11.82
2018-03-14T20:10:51.660Z,10.60
2018-03-14T20:13:20.181Z,12.70
2018-03-14T20:15:48.986Z,11.12
2018-03-14T20:18:18.424Z,10.55
2018-03-14T20:20:47.713Z,10.93
2018-03-14T20:23:17.194Z,11.05
2018-03-14T20:25:46.408Z,11.98
2018-03-14T20:28:15.383Z,12.13
2018-03-14T20:30:44.151Z,11.25
2018-03-14T20:33:13.038Z,11.73
2018-03-14T20:35:41.915Z,11.18
2018-03-14T20:38:10.477Z,11.07
2018-03-14T20:40:38.887Z,11.20
2018-03-14T20:43:07.346Z,10.77
2018-03-14T20:45:35.852Z,11.98
2018-03-14T20:48:05.230Z,11.00
2018-03-14T20:50:34.580Z,10.98
2018-03-14T20:53:03.026Z,10.65
2018-03-14T20:55:31.831Z,11.05
2018-03-14T20:58:00.064Z,10.95
2018-03-14T21:00:29.076Z,10.70
2018-03-14T21:02:59.879Z,12.23
2018-03-14T21:05:28.817Z,13.32
2018-03-14T21:07:58.165Z,10.70
2018-03-14T21:10:38.098Z,11.20
2018-03-14T21:13:08.419Z,11.38
2018-03-14T21:15:37.503Z,12.00
2018-03-14T21:18:06.946Z,10.60
2018-03-14T21:20:36.011Z,11.12
2018-03-14T21:23:04.111Z,10.73
2018-03-14T21:25:32.765Z,12.75
2018-03-14T21:28:01.153Z,10.80
2018-03-14T21:30:29.388Z,12.48
2018-03-14T21:32:57.790Z,11.95
2018-03-14T21:35:26.095Z,11.90
2018-03-14T21:37:54.483Z,11.90
2018-03-14T21:40:24.977Z,10.90
2018-03-14T21:42:53.759Z,11.30
2018-03-14T21:45:22.641Z,12.18
2018-03-14T21:47:50.777Z,12.32
2018-03-14T21:50:20.458Z,9.65
2018-03-14T21:52:49.172Z,10.63
2018-03-14T21:55:17.590Z,10.98
2018-03-14T21:57:46.131Z,10.15
2018-03-14T22:00:15.927Z,10.57
2018-03-14T22:02:44.291Z,11.50
2018-03-14T22:05:12.502Z,11.60
2018-03-14T22:07:40.873Z,10.38
2018-03-14T22:10:09.246Z,11.23
2018-03-14T22:12:37.682Z,11.38
2018-03-14T22:15:05.874Z,11.65
2018-03-14T22:17:34.563Z,11.27
2018-03-14T22:20:03.599Z,11.23
2018-03-14T22:22:31.809Z,10.48
2018-03-14T22:24:59.974Z,11.07
2018-03-14T22:27:28.095Z,10.13
2018-03-14T22:29:56.960Z,11.05
2018-03-14T22:32:25.695Z,12.07
2018-03-14T22:34:53.783Z,12.07
2018-03-14T22:37:22.774Z,11.73
2018-03-14T22:39:54.411Z,11.18
2018-03-14T22:42:24.045Z,12.63
2018-03-14T22:44:52.475Z,11.95
2018-03-14T22:47:20.505Z,12.95
2018-03-14T22:49:49.608Z,10.75
2018-03-14T22:52:17.918Z,10.57
2018-03-14T22:54:46.027Z,11.32
2018-03-14T22:57:14.596Z,11.88
2018-03-14T22:59:42.661Z,10.73
2018-03-14T23:02:10.587Z,11.70
2018-03-14T23:04:39.126Z,12.45
2018-03-14T23:07:07.273Z,11.80
2018-03-14T23:09:35.434Z,10.68
2018-03-14T23:12:04.659Z,11.57
2018-03-14T23:14:33.908Z,12.63
2018-03-14T23:17:03.161Z,10.80
2018-03-14T23:19:31.404Z,11.35
2018-03-14T23:22:00.285Z,11.65
2018-03-14T23:24:28.771Z,13.00
2018-03-14T23:26:56.864Z,11.10
2018-03-14T23:29:25.079Z,10.90
2018-03-14T23:31:54.231Z,11.30
2018-03-14T23:34:22.465Z,11.80
2018-03-14T23:36:50.380Z,12.27
2018-03-14T23:39:18.660Z,11.88
2018-03-14T23:41:47.351Z,13.05
2018-03-14T23:44:15.638Z,10.77
2018-03-14T23:46:43.480Z,12.00
2018-03-14T23:49:11.479Z,12.70
2018-03-14T23:51:40.464Z,12.68
2018-03-14T23:54:08.864Z,13.00
2018-03-14T23:56:37.549Z,13.40
2018-03-14T23:59:06.208Z,13.90
